Nearby METAR Reports

 

KIAD - Wash Dc/Dulles, Virginia, USA
Distance from station: ESE 7mi, 11km
Updated: Sun, 07-Jun-2020 3:52am EDT
Few Clouds
Few Clouds
 Wind from NNW
Wind: NNW 7 mph , 11 km/h
Temperature: 68°F , 20°C
Dew Point: 52°F , 11°C
Humidity: 56%
Barometer: 29.91 inHg , 1012.9 hPa
Clouds: Few Clouds
Visibility: 10 miles , 16 km
Cloud details: Few Clouds 8500 ft
2020/06/07 07:52 KIAD 070752Z 33006KT 10SM FEW085 20/11 A2991 RMK AO2 SLP124 T02000111
KJYO - Leesburg/Godfrey, Virginia, USA
Distance from station: N 7mi, 12km
Updated: Sun, 07-Jun-2020 4:55am EDT
Clear
Clear
 Wind from calm
Wind: Calm
Temperature: 63°F , 17°C
Dew Point: 55°F , 13°C
Humidity: 77%
Barometer: 29.94 inHg , 1013.9 hPa
Clouds: Clear
Visibility: 10 miles , 16 km
2020/06/07 08:55 KJYO 070855Z AUTO 00000KT 10SM CLR 17/13 A2994 RMK AO2
 
KHEF - Manassas Muni, Virginia, USA
Distance from station: S 17mi, 28km
Updated: Sun, 07-Jun-2020 3:56am EDT
Clear
Clear
 Wind from NNW
Wind: NNW 6 mph , 9 km/h
Temperature: 66°F , 19°C
Dew Point: 54°F , 12°C
Humidity: 64%
Barometer: 29.92 inHg , 1013.2 hPa
Clouds: Clear
Visibility: 10 miles , 16 km
2020/06/07 07:56 KHEF 070756Z AUTO 33005KT 10SM CLR 19/12 A2992 RMK AO2 SLP134 T01940117
KGAI - Gaithersburg, Maryland, USA
Distance from station: NE 26mi, 41km
Updated: Sun, 07-Jun-2020 3:56am EDT
Few Clouds
Few Clouds
 Wind from calm
Wind: Calm
Temperature: 63°F , 17°C
Dew Point: 55°F , 13°C
Humidity: 77%
Barometer: 29.92 inHg , 1013.2 hPa
Clouds: Few Clouds
Visibility: 10 miles , 16 km
Cloud details: Few Clouds 11000 ft
2020/06/07 07:56 KGAI 070756Z AUTO 00000KT 10SM FEW110 17/13 A2992 RMK AO2 RAB11E22 SLP140 P0000 T01720128
 
KDAA - Fort Belvoir/Dav, Virginia, USA
Distance from station: SE 27mi, 44km
Updated: Sun, 07-Jun-2020 3:56am EDT
Mostly cloudy
Mostly cloudy
 Wind from NNW
Wind: NNW 5 mph , 7 km/h
Temperature: 75°F , 24°C
Dew Point: 50°F , 10°C
Humidity: 41%
Barometer: 29.89 inHg , 1012.2 hPa
Clouds: Mostly cloudy
Visibility: 10 miles , 16 km
Cloud details: Mostly cloudy 9000 ft
2020/06/07 07:56 KDAA 070756Z AUTO 33004KT 10SM BKN090 24/10 A2989 RMK AO2 SLP124 T02360103 TSNO $
KHWY - Warrenton, Virginia, USA
Distance from station: SSW 27mi, 44km
Updated: Sun, 07-Jun-2020 4:35am EDT
Clear
Clear
 Wind from NNW
Wind: NNW 5 mph , 7 km/h
Temperature: 64°F , 18°C
Dew Point: 52°F , 11°C
Humidity: 64%
Barometer: 29.92 inHg , 1013.2 hPa
Clouds: Clear
Visibility: 10 miles , 16 km
2020/06/07 08:35 KHWY 070835Z AUTO 33004KT 10SM CLR 18/11 A2992 RMK AO2 T01800106
 
KDCA - Washington/Natl, Washington D.c., USA
Distance from station: ESE 30mi, 48km
Updated: Sun, 07-Jun-2020 3:52am EDT
Mostly cloudy
Mostly cloudy
 Wind from N
Wind: N 14 mph , 22 km/h
Temperature: 73°F , 23°C
Dew Point: 52°F , 11°C
Humidity: 47%
Barometer: 29.90 inHg , 1012.5 hPa
Clouds: Mostly cloudy
Visibility: 10 miles , 16 km
Cloud details: Mostly cloudy 9500 ft
Mostly cloudy 25000 ft
2020/06/07 07:52 KDCA 070752Z 35012KT 10SM BKN095 BKN250 23/11 A2990 RMK AO2 RAE18 SLP123 P0000 T02280111
KFDK - Frederick, Maryland, USA
Distance from station: NNE 33mi, 53km
Updated: Sun, 07-Jun-2020 4:35am EDT
Clear
Clear
 Wind from calm
Wind: Calm
Temperature: 59°F , 15°C
Dew Point: 57°F , 14°C
Humidity: 94%
Barometer: 29.92 inHg , 1013.2 hPa
Clouds: Clear
Visibility: 10 miles , 16 km
2020/06/07 08:35 KFDK 070835Z AUTO 00000KT 10SM CLR 15/14 A2992 RMK AO2
 
KOKV - Winchester Rgnl, Virginia, USA
Distance from station: WNW 33mi, 54km
Updated: Sun, 07-Jun-2020 4:35am EDT
Clear
Clear
 Wind from WNW
Wind: WNW 3 mph , 6 km/h
Temperature: 59°F , 15°C
Dew Point: 52°F , 11°C
Humidity: 77%
Barometer: 29.95 inHg , 1014.2 hPa
Clouds: Clear
Visibility: 10 miles , 16 km
2020/06/07 08:35 KOKV 070835Z AUTO 29003KT 10SM CLR 15/11 A2995 RMK AO2
KCJR - Culpeper, Virginia, USA
Distance from station: SSW 34mi, 54km
Updated: Sun, 07-Jun-2020 4:35am EDT
Clear
Clear
 Wind from calm
Wind: Calm
Temperature: 63°F , 17°C
Dew Point: 54°F , 12°C
Humidity: 73%
Barometer: 29.94 inHg , 1013.9 hPa
Clouds: Clear
Visibility: 10 miles , 16 km
2020/06/07 08:35 KCJR 070835Z AUTO 00000KT 10SM CLR 17/12 A2994 RMK AO2 T01730123
 
KCGS - College Park, Maryland, USA
Distance from station: E 35mi, 56km
Updated: Sun, 07-Jun-2020 4:35am EDT
Partly cloudy
Partly cloudy
 Wind from calm
Wind: Calm
Temperature: 61°F , 16°C
Dew Point: 55°F , 13°C
Humidity: 83%
Barometer: 29.90 inHg , 1012.5 hPa
Clouds: Partly cloudy
Visibility: 10 miles , 16 km
Cloud details: Partly cloudy 9000 ft
Partly cloudy 12000 ft
2020/06/07 08:35 KCGS 070835Z AUTO 00000KT 10SM SCT090 SCT120 16/13 A2990 RMK AO1 T01630131
KNYG - Quantico Mcaf, Virginia, USA
Distance from station: SSE 35mi, 57km
Updated: Sun, 07-Jun-2020 3:56am EDT
Partly cloudy
Partly cloudy
 Wind from NNW
Wind: NNW 10 mph , 17 km/h
Temperature: 73°F , 23°C
Dew Point: 52°F , 11°C
Humidity: 47%
Barometer: 29.89 inHg , 1012.2 hPa
Clouds: Partly cloudy
Visibility: 8 miles , 13 km
Cloud details: Few Clouds 9000 ft
Partly cloudy 11000 ft
2020/06/07 07:56 KNYG 070756Z AUTO 34009KT 8SM FEW090 SCT110 23/11 A2989 RMK AO2 SLP124 T02330106
 
KFRR - Fort Royal, Virginia, USA
Distance from station: W 37mi, 59km
Updated: Sun, 07-Jun-2020 4:35am EDT
Clear
Clear
 Wind from calm
Wind: Calm
Temperature: 61°F , 16°C
Dew Point: 54°F , 12°C
Humidity: 77%
Barometer: 29.95 inHg , 1014.2 hPa
Clouds: Clear
Visibility: 10 miles , 16 km
2020/06/07 08:35 KFRR 070835Z AUTO 00000KT 10SM CLR 16/12 A2995 RMK AO1
KMRB - Martinsburg, West Virginia, USA
Distance from station: NW 38mi, 61km
Updated: Sun, 07-Jun-2020 3:53am EDT
Clear
Clear
 Wind from NNW
Wind: NNW 5 mph , 7 km/h
Temperature: 64°F , 18°C
Dew Point: 52°F , 11°C
Humidity: 64%
Barometer: 29.93 inHg , 1013.5 hPa
Clouds: Clear
Visibility: 10 miles , 16 km
2020/06/07 07:53 KMRB 070753Z AUTO 34004KT 10SM CLR 18/11 A2993 RMK AO2 SLP129 T01780111
 
KADW - Andrews Afb, Maryland, USA
Distance from station: ESE 39mi, 63km
Updated: Sun, 07-Jun-2020 3:56am EDT
Mostly cloudy
Mostly cloudy
 Wind from N
Wind: N 9 mph , 15 km/h
Temperature: 70°F , 21°C
Dew Point: 52°F , 11°C
Humidity: 53%
Barometer: 29.89 inHg , 1012.2 hPa
Clouds: Mostly cloudy
Visibility: 10 miles , 16 km
Cloud details: Mostly cloudy 10000 ft
2020/06/07 07:56 KADW 070756Z AUTO 35008KT 10SM BKN100 21/11 A2989 RMK AO2 RAE08DZB08E10 SLP126 P0000 T02130107 $
KRMN - Stafford Regnl, Virginia, USA
Distance from station: S 39mi, 63km
Updated: Sun, 07-Jun-2020 4:35am EDT
Partly cloudy
Partly cloudy
 Wind from NNW
Wind: NNW 9 mph , 15 km/h
Temperature: 72°F , 22°C
Dew Point: 52°F , 11°C
Humidity: 50%
Barometer: 29.94 inHg , 1013.9 hPa
Clouds: Partly cloudy
Visibility: 10 miles , 16 km
Cloud details: Partly cloudy 9000 ft
2020/06/07 08:35 KRMN 070835Z AUTO 34008KT 10SM SCT090 22/11 A2994 RMK AO2 T02190107
 
KFME - Fort Meade, Maryland, USA
Distance from station: ENE 44mi, 70km
Updated: Sun, 07-Jun-2020 4:35am EDT
Clear
Clear
 Wind from calm
Wind: Calm
Temperature: 61°F , 16°C
Dew Point: 57°F , 14°C
Humidity: 88%
Barometer: 29.93 inHg , 1013.5 hPa
Clouds: Clear
Visibility: 10 miles , 16 km
2020/06/07 08:35 KFME 070835Z AUTO 00000KT 10SM CLR 16/14 A2993 RMK AO1
KRSP - Nsf Thurmont, Maryland, USA
Distance from station: N 48mi, 77km
Updated: Fri, 20-Mar-2020 2:43am EDT
NOT Current
Mist, Overcast
Mist, Overcast
 Wind from SW
Wind: SW 12 mph , 19 km/h, Gust: 20 mph , 31 km/h
Temperature: 55°F , 13°C
Dew Point: 55°F , 13°C
Humidity: 100%
Barometer: 30.06 inHg , 1017.9 hPa
Summary: Mist
Clouds: Overcast
Visibility: 2 miles , 3 km
Cloud details: Overcast 100 ft
2020/03/20 06:43 KRSP 200643Z AUTO 23010G17KT 2SM BR OVC001 13/13 A3006 RMK AO2 $
 
KEZF - Fredericksb/Shan, Virginia, USA
Distance from station: S 48mi, 78km
Updated: Sun, 07-Jun-2020 4:35am EDT
Partly cloudy
Partly cloudy
 Wind from NNW
Wind: NNW 9 mph , 15 km/h
Temperature: 73°F , 23°C
Dew Point: 55°F , 13°C
Humidity: 53%
Barometer: 29.90 inHg , 1012.5 hPa
Clouds: Partly cloudy
Visibility: 10 miles , 16 km
Cloud details: Partly cloudy 12000 ft
2020/06/07 08:35 KEZF 070835Z AUTO 34008KT 10SM SCT120 23/13 A2990 RMK AO2 T02310126
KBWI - Balto/Wash Intl, Maryland, USA
Distance from station: ENE 49mi, 80km
Updated: Sun, 07-Jun-2020 3:54am EDT
Mostly cloudy
Mostly cloudy
 Wind from NW
Wind: NW 5 mph , 7 km/h
Temperature: 72°F , 22°C
Dew Point: 48°F , 9°C
Humidity: 44%
Barometer: 29.89 inHg , 1012.2 hPa
Clouds: Mostly cloudy
Visibility: 10 miles , 16 km
Cloud details: Few Clouds 7500 ft
Mostly cloudy 11000 ft
2020/06/07 07:54 KBWI 070754Z 31004KT 10SM FEW075 BKN110 22/09 A2989 RMK AO2 SLP120 T02170094